createdAt,value
2017-06-14T00:00:01.520Z,15.45
2017-06-14T00:00:29.719Z,15.52
2017-06-14T00:00:58.113Z,15.45
2017-06-14T00:01:26.341Z,15.59
2017-06-14T00:01:54.625Z,15.45
2017-06-14T00:02:22.937Z,15.45
2017-06-14T00:02:51.598Z,15.52
2017-06-14T00:03:19.701Z,15.47
2017-06-14T00:03:47.935Z,15.52
2017-06-14T00:04:16.081Z,15.52
2017-06-14T00:04:44.110Z,15.4
2017-06-14T00:05:12.412Z,15.49
2017-06-14T00:05:40.615Z,15.47
2017-06-14T00:06:08.872Z,15.45
2017-06-14T00:06:37.131Z,15.49
2017-06-14T00:07:05.327Z,15.45
2017-06-14T00:07:33.563Z,15.49
2017-06-14T00:08:01.703Z,15.47
2017-06-14T00:08:29.986Z,15.47
2017-06-14T00:08:58.083Z,15.47
2017-06-14T00:09:26.298Z,15.49
2017-06-14T00:09:54.510Z,15.49
2017-06-14T00:10:22.814Z,15.47
2017-06-14T00:10:51.077Z,15.47
2017-06-14T00:11:19.332Z,15.51
2017-06-14T00:11:47.510Z,15.53
2017-06-14T00:12:15.910Z,15.49
2017-06-14T00:12:44.142Z,15.49
2017-06-14T00:13:12.414Z,15.52
2017-06-14T00:13:40.559Z,15.45
2017-06-14T00:14:08.831Z,15.45
2017-06-14T00:14:37.006Z,15.45
2017-06-14T00:15:05.181Z,15.49
2017-06-14T00:15:33.528Z,15.43
2017-06-14T00:16:01.688Z,15.47
2017-06-14T00:16:29.973Z,15.49
2017-06-14T00:16:58.222Z,15.45
2017-06-14T00:17:26.506Z,15.47
2017-06-14T00:17:54.766Z,15.41
2017-06-14T00:18:22.952Z,15.47
2017-06-14T00:18:51.130Z,15.47
2017-06-14T00:19:19.376Z,15.4
2017-06-14T00:19:47.551Z,15.49
2017-06-14T00:20:15.808Z,15.38
2017-06-14T00:20:44.195Z,15.47
2017-06-14T00:21:12.346Z,15.43
2017-06-14T00:21:40.316Z,15.41
2017-06-14T00:22:08.607Z,15.51
2017-06-14T00:22:36.835Z,15.49
2017-06-14T00:23:05.097Z,15.47
2017-06-14T00:23:33.238Z,15.49
2017-06-14T00:24:01.450Z,15.47
2017-06-14T00:24:29.553Z,15.47
2017-06-14T00:24:57.741Z,15.45
2017-06-14T00:25:25.810Z,15.45
2017-06-14T00:25:54.441Z,15.49
2017-06-14T00:26:22.620Z,15.51
2017-06-14T00:26:50.817Z,15.52
2017-06-14T00:27:19.003Z,15.52
2017-06-14T00:27:47.196Z,15.45
2017-06-14T00:28:15.438Z,15.47
2017-06-14T00:28:43.741Z,15.49
2017-06-14T00:29:11.884Z,15.51
2017-06-14T00:29:39.988Z,15.49
2017-06-14T00:30:08.163Z,15.47
2017-06-14T00:30:36.340Z,15.47
2017-06-14T00:31:04.701Z,15.51
2017-06-14T00:31:32.962Z,15.49
2017-06-14T00:32:01.016Z,15.49
2017-06-14T00:32:29.251Z,15.47
2017-06-14T00:32:57.364Z,15.44
2017-06-14T00:33:25.513Z,15.51
2017-06-14T00:33:53.573Z,15.49
2017-06-14T00:34:21.784Z,15.47
2017-06-14T00:34:50.061Z,15.52
2017-06-14T00:35:18.420Z,15.49
2017-06-14T00:35:46.876Z,15.47
2017-06-14T00:36:15.119Z,15.47
2017-06-14T00:36:43.236Z,15.51
2017-06-14T00:37:11.465Z,15.49
2017-06-14T00:37:39.629Z,15.47
2017-06-14T00:38:07.838Z,15.45
2017-06-14T00:38:35.992Z,15.49
2017-06-14T00:39:04.074Z,15.38
2017-06-14T00:39:32.234Z,15.37
2017-06-14T00:40:00.397Z,15.34
2017-06-14T00:40:28.663Z,15.45
2017-06-14T00:40:57.017Z,15.34
2017-06-14T00:41:25.259Z,15.31
2017-06-14T00:41:53.393Z,15.37
2017-06-14T00:42:21.631Z,15.35
2017-06-14T00:42:49.872Z,15.45
2017-06-14T00:43:18.007Z,15.35
2017-06-14T00:43:46.173Z,15.34
2017-06-14T00:44:14.224Z,15.43
2017-06-14T00:44:42.471Z,15.31
2017-06-14T00:45:10.646Z,15.38
2017-06-14T00:45:38.844Z,15.37
2017-06-14T00:46:07.268Z,15.33
2017-06-14T00:46:35.323Z,15.37
2017-06-14T00:47:03.661Z,15.26
2017-06-14T00:47:31.854Z,15.35
2017-06-14T00:47:59.925Z,15.35
2017-06-14T00:48:28.239Z,15.35
2017-06-14T00:48:56.418Z,15.27
2017-06-14T00:49:24.720Z,15.23
2017-06-14T00:49:53.217Z,15.3
2017-06-14T00:50:21.432Z,15.33
2017-06-14T00:50:49.628Z,15.23
2017-06-14T00:51:17.979Z,15.25
2017-06-14T00:51:46.188Z,15.23
2017-06-14T00:52:14.371Z,15.3
2017-06-14T00:52:42.716Z,15.3
2017-06-14T00:53:11.003Z,15.27
2017-06-14T00:53:39.266Z,15.26
2017-06-14T00:54:07.576Z,15.34
2017-06-14T00:54:35.865Z,15.31
2017-06-14T00:55:04.049Z,15.31
2017-06-14T00:55:32.220Z,15.3
2017-06-14T00:56:00.490Z,15.23
2017-06-14T00:56:28.839Z,15.23
2017-06-14T00:56:56.946Z,15.23
2017-06-14T00:57:25.060Z,15.35
2017-06-14T00:57:53.359Z,15.26
2017-06-14T00:58:21.568Z,15.31
2017-06-14T00:58:49.700Z,15.23
2017-06-14T00:59:17.890Z,15.27
2017-06-14T00:59:45.906Z,15.31
2017-06-14T01:00:14.206Z,15.31
2017-06-14T01:00:42.335Z,15.26
2017-06-14T01:01:10.644Z,15.26
2017-06-14T01:01:38.786Z,15.31
2017-06-14T01:02:06.951Z,15.31
2017-06-14T01:02:35.570Z,15.3
2017-06-14T01:03:03.752Z,15.19
2017-06-14T01:03:31.932Z,15.25
2017-06-14T01:03:59.885Z,15.3
2017-06-14T01:04:27.996Z,15.3
2017-06-14T01:04:56.169Z,15.23
2017-06-14T01:05:24.430Z,15.25
2017-06-14T01:05:52.550Z,15.23
2017-06-14T01:06:20.816Z,15.25
2017-06-14T01:06:49.078Z,15.25
2017-06-14T01:07:17.331Z,15.27
2017-06-14T01:07:45.396Z,15.19
2017-06-14T01:08:13.683Z,15.15
2017-06-14T01:08:41.840Z,15.23
2017-06-14T01:09:10.086Z,15.2
2017-06-14T01:09:38.244Z,15.16
2017-06-14T01:10:06.378Z,15.12
2017-06-14T01:10:34.754Z,15.16
2017-06-14T01:11:02.996Z,15.18
2017-06-14T01:11:31.272Z,15.19
2017-06-14T01:11:59.548Z,15.18
2017-06-14T01:12:27.730Z,15.13
2017-06-14T01:12:56.043Z,15.13
2017-06-14T01:13:24.216Z,15.16
2017-06-14T01:13:52.526Z,15.16
2017-06-14T01:14:20.610Z,15.16
2017-06-14T01:14:48.842Z,15.19
2017-06-14T01:15:16.986Z,15.18
2017-06-14T01:15:45.198Z,15.15
2017-06-14T01:16:13.272Z,15.19
2017-06-14T01:16:41.568Z,15.22
2017-06-14T01:17:09.727Z,15.2
2017-06-14T01:17:37.927Z,15.2
2017-06-14T01:18:05.969Z,15.19
2017-06-14T01:18:34.290Z,15.27
2017-06-14T01:19:02.638Z,15.27
2017-06-14T01:19:30.708Z,15.27
2017-06-14T01:19:58.979Z,15.25
2017-06-14T01:20:27.265Z,15.19
2017-06-14T01:20:56.064Z,15.3
2017-06-14T01:21:24.764Z,15.31
2017-06-14T01:21:53.076Z,15.22
2017-06-14T01:22:21.351Z,15.23
2017-06-14T01:22:49.433Z,15.2
2017-06-14T01:23:17.502Z,15.2
2017-06-14T01:23:45.686Z,15.2
2017-06-14T01:24:13.918Z,15.23
2017-06-14T01:24:42.197Z,15.22
2017-06-14T01:25:10.308Z,15.13
2017-06-14T01:25:38.582Z,15.2
2017-06-14T01:26:06.841Z,15.18
2017-06-14T01:26:35.243Z,15.2
2017-06-14T01:27:03.367Z,15.18
2017-06-14T01:27:31.501Z,15.16
2017-06-14T01:27:59.767Z,15.15
2017-06-14T01:28:27.958Z,15.18
2017-06-14T01:28:56.039Z,15.12
2017-06-14T01:29:24.243Z,15.23
2017-06-14T01:29:52.461Z,15.16
2017-06-14T01:30:20.797Z,15.16
2017-06-14T01:30:49.092Z,15.2
2017-06-14T01:31:17.332Z,15.12
2017-06-14T01:31:45.755Z,15.2
2017-06-14T01:32:13.920Z,15.19
2017-06-14T01:32:42.226Z,15.18
2017-06-14T01:33:10.472Z,15.22
2017-06-14T01:33:38.584Z,15.31
2017-06-14T01:34:06.731Z,15.3
2017-06-14T01:34:35.002Z,15.31
2017-06-14T01:35:03.190Z,15.27
2017-06-14T01:35:31.451Z,15.23
2017-06-14T01:35:59.730Z,15.26
2017-06-14T01:36:27.849Z,15.34
2017-06-14T01:36:56.127Z,15.34
2017-06-14T01:37:24.278Z,15.41
2017-06-14T01:37:52.598Z,15.33
2017-06-14T01:38:20.978Z,15.41
2017-06-14T01:38:49.064Z,15.41
2017-06-14T01:39:17.292Z,15.4
2017-06-14T01:39:45.444Z,15.34
2017-06-14T01:40:13.618Z,15.4
2017-06-14T01:40:42.237Z,15.43
2017-06-14T01:41:10.424Z,15.38
2017-06-14T01:41:38.581Z,15.35
2017-06-14T01:42:06.982Z,15.37
2017-06-14T01:42:35.155Z,15.35
2017-06-14T01:43:03.375Z,15.41
2017-06-14T01:43:31.684Z,15.38
2017-06-14T01:43:59.847Z,15.38
2017-06-14T01:44:27.991Z,15.31
2017-06-14T01:44:56.241Z,15.37
2017-06-14T01:45:24.454Z,15.34
2017-06-14T01:45:52.768Z,15.35
2017-06-14T01:46:21.064Z,15.37
2017-06-14T01:46:49.137Z,15.3
2017-06-14T01:47:17.451Z,15.27
2017-06-14T01:47:45.706Z,15.2
2017-06-14T01:48:13.787Z,15.27
2017-06-14T01:48:42.030Z,15.3
2017-06-14T01:49:10.250Z,15.31
2017-06-14T01:49:38.418Z,15.23
2017-06-14T01:50:06.533Z,15.31
2017-06-14T01:50:34.738Z,15.23
2017-06-14T01:51:03.066Z,15.23
2017-06-14T01:51:31.584Z,15.26
2017-06-14T01:52:00.027Z,15.35
2017-06-14T01:52:28.296Z,15.27
2017-06-14T01:52:56.478Z,15.26
2017-06-14T01:53:24.644Z,15.33
2017-06-14T01:53:52.917Z,15.3
2017-06-14T01:54:21.110Z,15.3
2017-06-14T01:54:49.314Z,15.27
2017-06-14T01:55:17.711Z,15.26
2017-06-14T01:55:45.962Z,15.3
2017-06-14T01:56:14.270Z,15.23
2017-06-14T01:56:42.426Z,15.3
2017-06-14T01:57:10.642Z,15.23
2017-06-14T01:57:38.909Z,15.3
2017-06-14T01:58:07.239Z,15.26
2017-06-14T01:58:35.526Z,15.23
2017-06-14T01:59:03.706Z,15.27
2017-06-14T01:59:32.076Z,15.26
2017-06-14T02:00:00.262Z,15.3
2017-06-14T02:00:28.441Z,15.35
2017-06-14T02:00:56.727Z,15.23
2017-06-14T02:01:24.942Z,15.25
2017-06-14T02:01:53.149Z,15.35
2017-06-14T02:02:21.336Z,15.26
2017-06-14T02:02:49.499Z,15.23
2017-06-14T02:03:17.706Z,15.13
2017-06-14T02:03:45.802Z,15.19
2017-06-14T02:04:14.031Z,15.15
2017-06-14T02:04:42.300Z,15.16
2017-06-14T02:05:10.447Z,15.18
2017-06-14T02:05:38.622Z,15.16
2017-06-14T02:06:06.708Z,15.13
2017-06-14T02:06:34.995Z,15.19
2017-06-14T02:07:03.255Z,15.15
2017-06-14T02:07:31.699Z,15.19
2017-06-14T02:07:59.928Z,15.19
2017-06-14T02:08:28.072Z,15.18
2017-06-14T02:08:56.272Z,15.19
2017-06-14T02:09:24.576Z,15.19
2017-06-14T02:09:52.739Z,15.2
2017-06-14T02:10:20.916Z,15.15
2017-06-14T02:10:49.179Z,15.07
2017-06-14T02:11:17.451Z,15.1
2017-06-14T02:11:45.565Z,15.12
2017-06-14T02:12:13.567Z,15.16
2017-06-14T02:12:42.010Z,15.15
2017-06-14T02:13:10.284Z,15.1
2017-06-14T02:13:38.560Z,15.13
2017-06-14T02:14:06.840Z,15.13
2017-06-14T02:14:34.980Z,15.12
2017-06-14T02:15:03.229Z,15.01
2017-06-14T02:15:31.291Z,15.1
2017-06-14T02:15:59.468Z,15.12
2017-06-14T02:16:27.628Z,15.08
2017-06-14T02:16:55.862Z,15.15
2017-06-14T02:17:24.276Z,15.12
2017-06-14T02:17:52.500Z,15.08
2017-06-14T02:18:20.670Z,15.16
2017-06-14T02:18:49.617Z,15.12
2017-06-14T02:19:17.825Z,15.08
2017-06-14T02:19:45.913Z,15.15
2017-06-14T02:20:14.158Z,15.12
2017-06-14T02:20:42.118Z,15.15
2017-06-14T02:21:10.282Z,15.07
2017-06-14T02:21:38.469Z,15.13
2017-06-14T02:22:06.759Z,15.08
2017-06-14T02:22:35.188Z,15.07
2017-06-14T02:23:03.434Z,15.07
2017-06-14T02:23:31.615Z,15.05
2017-06-14T02:23:59.736Z,15.08
2017-06-14T02:24:27.903Z,15.07
2017-06-14T02:24:55.920Z,15.04
2017-06-14T02:25:24.219Z,15.02
2017-06-14T02:25:52.432Z,15.05
2017-06-14T02:26:20.572Z,15.01
2017-06-14T02:26:48.803Z,15.07
2017-06-14T02:27:16.994Z,15.08
2017-06-14T02:27:45.285Z,15.07
2017-06-14T02:28:13.533Z,15.07
2017-06-14T02:28:41.775Z,15.08
2017-06-14T02:29:09.929Z,15.07
2017-06-14T02:29:37.997Z,15.19
2017-06-14T02:30:06.118Z,15.15
2017-06-14T02:30:34.418Z,15.16
2017-06-14T02:31:02.692Z,15.15
2017-06-14T02:31:30.833Z,15.13
2017-06-14T02:31:59.020Z,15.22
2017-06-14T02:32:27.229Z,15.18
2017-06-14T02:32:55.445Z,15.18
2017-06-14T02:33:23.758Z,15.13
2017-06-14T02:33:51.915Z,15.18
2017-06-14T02:34:19.977Z,15.13
2017-06-14T02:34:47.867Z,15.15
2017-06-14T02:35:16.015Z,15.23
2017-06-14T02:35:44.017Z,15.15
2017-06-14T02:36:12.063Z,15.16
2017-06-14T02:36:40.324Z,15.12
2017-06-14T02:37:08.592Z,15.15
2017-06-14T02:37:36.773Z,15.22
2017-06-14T02:38:05.138Z,15.12
2017-06-14T02:38:33.121Z,15.12
2017-06-14T02:39:01.451Z,15.2
2017-06-14T02:39:29.706Z,15.16
2017-06-14T02:39:57.780Z,15.13
2017-06-14T02:40:25.948Z,15.13
2017-06-14T02:40:54.185Z,15.07
2017-06-14T02:41:22.428Z,15.07
2017-06-14T02:41:50.534Z,15.12
2017-06-14T02:42:18.553Z,15.02
2017-06-14T02:42:46.948Z,15.12
2017-06-14T02:43:15.102Z,15.07
2017-06-14T02:43:43.240Z,15.12
2017-06-14T02:44:11.300Z,15.18
2017-06-14T02:44:39.340Z,15.13
2017-06-14T02:45:07.528Z,15.07
2017-06-14T02:45:35.785Z,15.07
2017-06-14T02:46:04.022Z,15.12
2017-06-14T02:46:32.206Z,15.1
2017-06-14T02:47:00.346Z,15.05
2017-06-14T02:47:28.484Z,15.1
2017-06-14T02:47:56.812Z,15.07
2017-06-14T02:48:25.017Z,15.05
2017-06-14T02:48:53.117Z,15.05
2017-06-14T02:49:21.267Z,15.1
2017-06-14T02:49:49.504Z,15.02
2017-06-14T02:50:17.747Z,15.04
2017-06-14T02:50:46.005Z,15.07
2017-06-14T02:51:14.193Z,15.04
2017-06-14T02:51:42.222Z,15.02
2017-06-14T02:52:10.385Z,15.02
2017-06-14T02:52:38.479Z,15.07
2017-06-14T02:53:06.686Z,15.05
2017-06-14T02:53:34.731Z,15.01
2017-06-14T02:54:02.996Z,15.04
2017-06-14T02:54:31.230Z,15.01
2017-06-14T02:54:59.458Z,14.98
2017-06-14T02:55:27.356Z,14.98
2017-06-14T02:55:55.408Z,15.08
2017-06-14T02:56:23.535Z,15
2017-06-14T02:56:51.780Z,14.98
2017-06-14T02:57:19.988Z,14.95
2017-06-14T02:57:48.157Z,14.93
2017-06-14T02:58:16.364Z,14.93
2017-06-14T02:58:44.553Z,14.97
2017-06-14T02:59:12.715Z,14.93
2017-06-14T02:59:40.902Z,14.97
2017-06-14T03:00:09.092Z,14.86
2017-06-14T03:00:37.232Z,14.95
2017-06-14T03:01:05.431Z,14.85
2017-06-14T03:01:33.645Z,14.93
2017-06-14T03:02:01.826Z,14.94
2017-06-14T03:02:30.016Z,14.95
2017-06-14T03:02:58.265Z,14.95
2017-06-14T03:03:26.609Z,15
2017-06-14T03:03:54.835Z,14.9
2017-06-14T03:04:23.115Z,14.87
2017-06-14T03:04:51.382Z,14.9
2017-06-14T03:05:19.433Z,14.94
2017-06-14T03:05:47.617Z,14.87
2017-06-14T03:06:15.864Z,14.94
2017-06-14T03:06:43.934Z,14.94
2017-06-14T03:07:12.167Z,14.85
2017-06-14T03:07:40.351Z,14.95
2017-06-14T03:08:08.623Z,14.97
2017-06-14T03:08:36.727Z,15.01
2017-06-14T03:09:04.899Z,14.94
2017-06-14T03:09:33.139Z,14.95
2017-06-14T03:10:01.300Z,14.86
2017-06-14T03:10:29.541Z,14.9
2017-06-14T03:10:57.832Z,14.95
2017-06-14T03:11:26.057Z,14.94
2017-06-14T03:11:54.162Z,14.94
2017-06-14T03:12:22.227Z,14.95
2017-06-14T03:12:50.382Z,14.95
2017-06-14T03:13:18.726Z,14.94
2017-06-14T03:13:46.858Z,14.89
2017-06-14T03:14:15.003Z,14.93
2017-06-14T03:14:43.174Z,14.93
2017-06-14T03:15:11.465Z,14.9
2017-06-14T03:15:39.557Z,14.94
2017-06-14T03:16:07.814Z,14.93
2017-06-14T03:16:35.875Z,14.93
2017-06-14T03:17:04.084Z,14.87
2017-06-14T03:17:32.220Z,14.97
2017-06-14T03:18:00.206Z,14.98
2017-06-14T03:18:28.321Z,14.95
2017-06-14T03:18:56.455Z,14.97
2017-06-14T03:19:24.698Z,15.01
2017-06-14T03:19:52.854Z,14.86
2017-06-14T03:20:20.817Z,14.95
2017-06-14T03:20:48.785Z,14.93
2017-06-14T03:21:16.828Z,14.97
2017-06-14T03:21:45.009Z,14.97
2017-06-14T03:22:13.282Z,14.83
2017-06-14T03:22:41.547Z,15.01
2017-06-14T03:23:09.938Z,14.98
2017-06-14T03:23:38.111Z,14.9
2017-06-14T03:24:06.439Z,14.9
2017-06-14T03:24:34.569Z,15
2017-06-14T03:25:02.831Z,14.87
2017-06-14T03:25:30.966Z,14.93
2017-06-14T03:25:59.222Z,14.95
2017-06-14T03:26:27.451Z,14.94
2017-06-14T03:26:55.686Z,14.98
2017-06-14T03:27:23.913Z,14.94
2017-06-14T03:27:52.154Z,14.97
2017-06-14T03:28:20.398Z,14.93
2017-06-14T03:28:48.774Z,14.9
2017-06-14T03:29:16.919Z,14.97
2017-06-14T03:29:45.206Z,14.94
2017-06-14T03:30:13.450Z,14.8
2017-06-14T03:30:41.506Z,14.86
2017-06-14T03:31:09.647Z,14.8
2017-06-14T03:31:37.917Z,14.83
2017-06-14T03:32:06.186Z,14.79
2017-06-14T03:32:34.558Z,14.85
2017-06-14T03:33:02.797Z,14.83
2017-06-14T03:33:31.309Z,14.77
2017-06-14T03:33:59.637Z,14.82
2017-06-14T03:34:27.982Z,14.86
2017-06-14T03:34:56.296Z,14.71
2017-06-14T03:35:24.467Z,14.71
2017-06-14T03:35:52.612Z,14.79
2017-06-14T03:36:20.559Z,14.79
2017-06-14T03:36:48.706Z,14.75
2017-06-14T03:37:16.786Z,14.75
2017-06-14T03:37:44.974Z,14.67
2017-06-14T03:38:13.173Z,14.67
2017-06-14T03:38:41.474Z,14.67
2017-06-14T03:39:09.585Z,14.61
2017-06-14T03:39:37.669Z,14.63
2017-06-14T03:40:05.827Z,14.7
2017-06-14T03:40:34.104Z,14.69
2017-06-14T03:41:02.267Z,14.63
2017-06-14T03:41:30.561Z,14.66
2017-06-14T03:41:58.584Z,14.67
2017-06-14T03:42:26.883Z,14.59
2017-06-14T03:42:55.099Z,14.66
2017-06-14T03:43:23.370Z,14.69
2017-06-14T03:43:51.736Z,14.64
2017-06-14T03:44:19.893Z,14.67
2017-06-14T03:44:48.007Z,14.7
2017-06-14T03:45:16.165Z,14.66
2017-06-14T03:45:44.151Z,14.59
2017-06-14T03:46:12.413Z,14.63
2017-06-14T03:46:40.596Z,14.64
2017-06-14T03:47:08.645Z,14.66
2017-06-14T03:47:36.917Z,14.59
2017-06-14T03:48:04.865Z,14.69
2017-06-14T03:48:33.145Z,14.61
2017-06-14T03:49:01.425Z,14.6
2017-06-14T03:49:29.546Z,14.66
2017-06-14T03:49:57.670Z,14.57
2017-06-14T03:50:25.690Z,14.6
2017-06-14T03:50:53.941Z,14.63
2017-06-14T03:51:22.042Z,14.57
2017-06-14T03:51:50.308Z,14.63
2017-06-14T03:52:18.542Z,14.63
2017-06-14T03:52:46.783Z,14.57
2017-06-14T03:53:15.051Z,14.59
2017-06-14T03:53:43.374Z,14.61
2017-06-14T03:54:11.302Z,14.59
2017-06-14T03:54:39.412Z,14.57
2017-06-14T03:55:07.771Z,14.6
2017-06-14T03:55:36.025Z,14.6
2017-06-14T03:56:04.259Z,14.63
2017-06-14T03:56:32.550Z,14.69
2017-06-14T03:57:00.800Z,14.63
2017-06-14T03:57:28.964Z,14.63
2017-06-14T03:57:57.086Z,14.63
2017-06-14T03:58:25.347Z,14.61
2017-06-14T03:58:53.588Z,14.59
2017-06-14T03:59:21.752Z,14.6
2017-06-14T03:59:50.047Z,14.6
2017-06-14T04:00:18.396Z,14.63
2017-06-14T04:00:46.573Z,14.61
2017-06-14T04:01:14.817Z,14.63
2017-06-14T04:01:43.066Z,14.61
2017-06-14T04:02:11.220Z,14.64
2017-06-14T04:02:39.525Z,14.61
2017-06-14T04:03:07.790Z,14.63
2017-06-14T04:03:35.931Z,14.63
2017-06-14T04:04:04.184Z,14.64
2017-06-14T04:04:32.367Z,14.59
2017-06-14T04:05:00.591Z,14.64
2017-06-14T04:05:28.714Z,14.67
2017-06-14T04:05:56.956Z,14.61
2017-06-14T04:06:25.144Z,14.61
2017-06-14T04:06:53.487Z,14.64
2017-06-14T04:07:21.444Z,14.6
2017-06-14T04:07:49.596Z,14.6
2017-06-14T04:08:17.853Z,14.6
2017-06-14T04:08:46.094Z,14.61
2017-06-14T04:09:14.261Z,14.57
2017-06-14T04:09:42.570Z,14.57
2017-06-14T04:10:10.694Z,14.61
2017-06-14T04:10:38.935Z,14.7
2017-06-14T04:11:07.157Z,14.63
2017-06-14T04:11:35.206Z,14.63
2017-06-14T04:12:03.425Z,14.66
2017-06-14T04:12:31.678Z,14.64
2017-06-14T04:12:59.862Z,14.64
2017-06-14T04:13:28.026Z,14.57
2017-06-14T04:13:56.194Z,14.6
2017-06-14T04:14:24.450Z,14.57
2017-06-14T04:14:52.439Z,14.56
2017-06-14T04:15:20.359Z,14.6
2017-06-14T04:15:48.505Z,14.59
2017-06-14T04:16:16.646Z,14.61
2017-06-14T04:16:44.725Z,14.6
2017-06-14T04:17:12.875Z,14.56
2017-06-14T04:17:41.053Z,14.6
2017-06-14T04:18:09.227Z,14.56
2017-06-14T04:18:37.468Z,14.6
2017-06-14T04:19:05.695Z,14.57
2017-06-14T04:19:34.039Z,14.51
2017-06-14T04:20:02.117Z,14.51
2017-06-14T04:20:30.336Z,14.48
2017-06-14T04:20:58.593Z,14.49
2017-06-14T04:21:26.872Z,14.45
2017-06-14T04:21:55.145Z,14.44
2017-06-14T04:22:23.303Z,14.42
2017-06-14T04:22:51.349Z,14.42
2017-06-14T04:23:19.655Z,14.41
2017-06-14T04:23:47.801Z,14.33
2017-06-14T04:24:15.996Z,14.34
2017-06-14T04:24:44.201Z,14.36
2017-06-14T04:25:12.455Z,14.31
2017-06-14T04:25:40.616Z,14.31
2017-06-14T04:26:08.888Z,14.31
2017-06-14T04:26:37.135Z,14.31
2017-06-14T04:27:05.208Z,14.36
2017-06-14T04:27:33.318Z,14.36
2017-06-14T04:28:01.563Z,14.38
2017-06-14T04:28:29.802Z,14.39
2017-06-14T04:28:58.054Z,14.38
2017-06-14T04:29:26.381Z,14.36
2017-06-14T04:29:54.672Z,14.44
2017-06-14T04:30:22.831Z,14.48
2017-06-14T04:30:50.947Z,14.46
2017-06-14T04:31:19.208Z,14.45
2017-06-14T04:31:47.512Z,14.49
2017-06-14T04:32:15.576Z,14.48
2017-06-14T04:32:43.763Z,14.45
2017-06-14T04:33:11.826Z,14.45
2017-06-14T04:33:40.059Z,14.45
2017-06-14T04:34:08.292Z,14.46
2017-06-14T04:34:36.414Z,14.42
2017-06-14T04:35:04.682Z,14.48
2017-06-14T04:35:32.964Z,14.49
2017-06-14T04:36:01.084Z,14.46
2017-06-14T04:36:29.275Z,14.46
2017-06-14T04:36:57.381Z,14.38
2017-06-14T04:37:25.616Z,14.33
2017-06-14T04:37:53.694Z,14.33
2017-06-14T04:38:21.736Z,14.36
2017-06-14T04:38:49.979Z,14.3
2017-06-14T04:39:18.258Z,14.21
2017-06-14T04:39:46.506Z,14.21
2017-06-14T04:40:14.744Z,14.21
2017-06-14T04:40:42.885Z,14.19
2017-06-14T04:41:11.030Z,14.19
2017-06-14T04:41:39.097Z,14.21
2017-06-14T04:42:07.360Z,14.15
2017-06-14T04:42:35.536Z,14.15
2017-06-14T04:43:03.686Z,14.21
2017-06-14T04:43:31.818Z,14.12
2017-06-14T04:43:59.972Z,14.16
2017-06-14T04:44:28.124Z,14.2
2017-06-14T04:44:56.369Z,14.19
2017-06-14T04:45:24.666Z,14.19
2017-06-14T04:45:52.751Z,14.16
2017-06-14T04:46:21.126Z,14.16
2017-06-14T04:46:49.337Z,14.16
2017-06-14T04:47:17.486Z,14.19
2017-06-14T04:47:45.734Z,14.16
2017-06-14T04:48:13.956Z,14.2
2017-06-14T04:48:42.196Z,14.16
2017-06-14T04:49:10.407Z,14.19
2017-06-14T04:49:38.711Z,14.16
2017-06-14T04:50:07.223Z,14.16
2017-06-14T04:50:35.400Z,14.2
2017-06-14T04:51:03.648Z,14.2
2017-06-14T04:51:31.791Z,14.16
2017-06-14T04:51:59.942Z,14.19
2017-06-14T04:52:28.115Z,14.11
2017-06-14T04:52:56.256Z,14.03
2017-06-14T04:53:24.505Z,14.08
2017-06-14T04:53:52.672Z,14.2
2017-06-14T04:54:21.124Z,14.11
2017-06-14T04:54:49.325Z,14.15
2017-06-14T04:55:17.601Z,14.19
2017-06-14T04:55:45.757Z,14.16
2017-06-14T04:56:13.925Z,14.19
2017-06-14T04:56:42.096Z,14.26
2017-06-14T04:57:10.326Z,14.26
2017-06-14T04:57:38.533Z,14.19
2017-06-14T04:58:06.777Z,14.23
2017-06-14T04:58:34.884Z,14.15
2017-06-14T04:59:03.006Z,14.26
2017-06-14T04:59:31.333Z,14.26
2017-06-14T04:59:59.511Z,14.21
2017-06-14T05:00:27.461Z,14.21
2017-06-14T05:00:55.608Z,14.26
2017-06-14T05:01:23.765Z,14.26
2017-06-14T05:01:51.823Z,14.27
2017-06-14T05:02:20.704Z,14.2
2017-06-14T05:02:48.959Z,14.21
2017-06-14T05:03:17.230Z,14.31
2017-06-14T05:03:45.320Z,14.27
2017-06-14T05:04:13.575Z,14.31
2017-06-14T05:04:42.056Z,14.38
2017-06-14T05:05:10.272Z,14.3
2017-06-14T05:05:38.483Z,14.36
2017-06-14T05:06:06.612Z,14.39
2017-06-14T05:06:34.806Z,14.34
2017-06-14T05:07:03.078Z,14.34
2017-06-14T05:07:31.317Z,14.31
2017-06-14T05:07:59.604Z,14.34
2017-06-14T05:08:27.669Z,14.38
2017-06-14T05:08:55.875Z,14.28
2017-06-14T05:09:24.061Z,14.34
2017-06-14T05:09:52.589Z,14.31
2017-06-14T05:10:20.656Z,14.34
2017-06-14T05:10:48.970Z,14.23
2017-06-14T05:11:17.149Z,14.26
2017-06-14T05:11:45.196Z,14.24
2017-06-14T05:12:13.494Z,14.23
2017-06-14T05:12:41.628Z,14.2
2017-06-14T05:13:09.863Z,14.26
2017-06-14T05:13:37.987Z,14.19
2017-06-14T05:14:05.938Z,14.2
2017-06-14T05:14:33.987Z,14.16
2017-06-14T05:15:02.378Z,14.16
2017-06-14T05:15:30.543Z,14.12
2017-06-14T05:15:58.780Z,14.11
2017-06-14T05:16:27.044Z,14.08
2017-06-14T05:16:55.125Z,14.05
2017-06-14T05:17:23.345Z,14.08
2017-06-14T05:17:51.652Z,14.05
2017-06-14T05:18:19.885Z,14.09
2017-06-14T05:18:47.907Z,14.13
2017-06-14T05:19:16.126Z,14.11
2017-06-14T05:19:44.456Z,14.09
2017-06-14T05:20:12.723Z,14.13
2017-06-14T05:20:41.034Z,14.08
2017-06-14T05:21:09.034Z,14.09
2017-06-14T05:21:37.299Z,14.13
2017-06-14T05:22:05.664Z,14.03
2017-06-14T05:22:33.862Z,14.06
2017-06-14T05:23:02.152Z,14.08
2017-06-14T05:23:30.545Z,13.95
2017-06-14T05:23:58.816Z,14.02
2017-06-14T05:24:27.101Z,14.05
2017-06-14T05:24:55.619Z,14.13
2017-06-14T05:25:23.822Z,14.08
2017-06-14T05:25:51.912Z,14.09
2017-06-14T05:26:20.040Z,14.06
2017-06-14T05:26:48.128Z,14.11
2017-06-14T05:27:16.422Z,14.11
2017-06-14T05:27:44.583Z,14.06
2017-06-14T05:28:12.842Z,14.02
2017-06-14T05:28:41.129Z,14.03
2017-06-14T05:29:09.272Z,13.99
2017-06-14T05:29:37.249Z,13.97
2017-06-14T05:30:05.488Z,13.95
2017-06-14T05:30:33.736Z,13.97
2017-06-14T05:31:02.004Z,13.95
2017-06-14T05:31:30.040Z,13.93
2017-06-14T05:31:58.314Z,13.94
2017-06-14T05:32:26.545Z,14.01
2017-06-14T05:32:54.803Z,14.05
2017-06-14T05:33:22.909Z,13.97
2017-06-14T05:33:51.049Z,14.12
2017-06-14T05:34:19.330Z,13.97
2017-06-14T05:34:47.323Z,14.13
2017-06-14T05:35:15.597Z,13.99
2017-06-14T05:35:43.892Z,14.05
2017-06-14T05:36:12.162Z,14.11
2017-06-14T05:36:40.503Z,14.09
2017-06-14T05:37:08.835Z,14.11
2017-06-14T05:37:37.090Z,14.08
2017-06-14T05:38:05.317Z,14.12
2017-06-14T05:38:33.392Z,14.03
2017-06-14T05:39:01.535Z,14.15
2017-06-14T05:39:29.811Z,14.08
2017-06-14T05:39:57.966Z,14.13
2017-06-14T05:40:26.121Z,14.08
2017-06-14T05:40:54.378Z,14.11
2017-06-14T05:41:22.617Z,14.02
2017-06-14T05:41:50.875Z,14.06
2017-06-14T05:42:19.042Z,13.99
2017-06-14T05:42:47.011Z,13.97
2017-06-14T05:43:15.180Z,14.03
2017-06-14T05:43:43.735Z,14.01
2017-06-14T05:44:11.952Z,13.99
2017-06-14T05:44:40.341Z,13.99
2017-06-14T05:45:08.809Z,13.99
2017-06-14T05:45:37.113Z,14.01
2017-06-14T05:46:05.268Z,13.99
2017-06-14T05:46:33.408Z,14.05
2017-06-14T05:47:01.603Z,13.97
2017-06-14T05:47:29.826Z,14.05
2017-06-14T05:47:57.913Z,14.12
2017-06-14T05:48:25.859Z,14.08
2017-06-14T05:48:54.070Z,14.12
2017-06-14T05:49:22.341Z,14.13
2017-06-14T05:49:50.505Z,14.11
2017-06-14T05:50:18.840Z,14.11
2017-06-14T05:50:47.184Z,14.06
2017-06-14T05:51:15.386Z,14.03
2017-06-14T05:51:43.568Z,14.02
2017-06-14T05:52:11.695Z,14.05
2017-06-14T05:52:40.331Z,13.94
2017-06-14T05:53:08.595Z,14.06
2017-06-14T05:53:36.763Z,14.01
2017-06-14T05:54:05.033Z,14.08
2017-06-14T05:54:33.310Z,13.97
2017-06-14T05:55:01.539Z,13.99
2017-06-14T05:55:29.768Z,13.99
2017-06-14T05:55:58.099Z,13.95
2017-06-14T05:56:26.273Z,13.94
2017-06-14T05:56:54.455Z,13.95
2017-06-14T05:57:22.691Z,13.9
2017-06-14T05:57:50.857Z,13.93
2017-06-14T05:58:18.910Z,13.97
2017-06-14T05:58:47.188Z,13.99
2017-06-14T05:59:15.414Z,14.01
2017-06-14T05:59:43.592Z,14.05
2017-06-14T06:00:11.882Z,14.03
2017-06-14T06:00:40.300Z,14.09
2017-06-14T06:01:08.553Z,14.06
2017-06-14T06:01:36.530Z,14.08
2017-06-14T06:02:04.825Z,14.13
2017-06-14T06:02:33.001Z,14.09
2017-06-14T06:03:01.154Z,14.08
2017-06-14T06:03:29.294Z,14.08
2017-06-14T06:03:57.592Z,14.08
2017-06-14T06:04:25.816Z,14.12